SDA172 NZNR-NZPM
Flight info
| Callsign | SDA172 |
|---|---|
| Flight time | 0h 54m |
| Altitude | 8000 |
| Route | OPAPA H240 IRMIX |
| Aircraft | C208/L-SDFGR/C |
Departure
| Time | 2026-04-26 15:58 |
|---|---|
| Airport | Hawke's Bay Airport (NZNR) |
Arrival
| Time | 2026-04-26 16:53 |
|---|---|
| Airport | Palmerston North Airport (NZPM) |
| Time | Latitude | Longitude | Altitude | Speed | Heading |
|---|---|---|---|---|---|
| 2026-04-26 15:36 | -39.46655 | 176.87154 | 60 ft | 0 kts | 201° |
| 2026-04-26 15:55 | -39.46655 | 176.87138 | 61 ft | 6 kts | 342° |
| 2026-04-26 15:55 | -39.46662 | 176.87083 | 61 ft | 9 kts | 227° |
| 2026-04-26 15:56 | -39.46672 | 176.86981 | 58 ft | 17 kts | 272° |
| 2026-04-26 15:56 | -39.46673 | 176.86770 | 58 ft | 25 kts | 226° |
| 2026-04-26 15:56 | -39.46851 | 176.86733 | 58 ft | 33 kts | 183° |
| 2026-04-26 15:56 | -39.47099 | 176.86712 | 58 ft | 18 kts | 179° |
| 2026-04-26 15:57 | -39.47110 | 176.86706 | 58 ft | 6 kts | 355° |
| 2026-04-26 15:57 | -39.46976 | 176.86719 | 58 ft | 42 kts | 5° |
| 2026-04-26 15:57 | -39.46522 | 176.86769 | 72 ft | 85 kts | 2° |
| 2026-04-26 15:57 | -39.46120 | 176.86818 | 207 ft | 90 kts | 1° |
| 2026-04-26 15:58 | -39.45233 | 176.86911 | 449 ft | 98 kts | 1° |
| 2026-04-26 15:58 | -39.44567 | 176.86983 | 603 ft | 96 kts | 3° |
| 2026-04-26 15:58 | -39.43889 | 176.87058 | 756 ft | 99 kts | 0° |
| 2026-04-26 15:58 | -39.43208 | 176.87134 | 933 ft | 97 kts | 1° |
| 2026-04-26 15:59 | -39.42538 | 176.87207 | 1104 ft | 96 kts | 1° |
| 2026-04-26 15:59 | -39.41860 | 176.87278 | 1285 ft | 99 kts | 2° |
| 2026-04-26 15:59 | -39.41168 | 176.87353 | 1470 ft | 101 kts | 3° |
| 2026-04-26 15:59 | -39.40464 | 176.87430 | 1660 ft | 102 kts | 3° |
| 2026-04-26 16:00 | -39.39750 | 176.87508 | 1850 ft | 103 kts | 4° |
| 2026-04-26 16:00 | -39.39061 | 176.87690 | 2021 ft | 104 kts | 32° |
| 2026-04-26 16:00 | -39.38637 | 176.88420 | 2195 ft | 103 kts | 73° |
| 2026-04-26 16:00 | -39.38684 | 176.89321 | 2376 ft | 103 kts | 114° |
| 2026-04-26 16:01 | -39.39095 | 176.90073 | 2551 ft | 102 kts | 125° |
| 2026-04-26 16:01 | -39.39507 | 176.90822 | 2730 ft | 102 kts | 128° |
| 2026-04-26 16:01 | -39.40062 | 176.91388 | 2901 ft | 103 kts | 154° |
| 2026-04-26 16:01 | -39.40753 | 176.91570 | 3072 ft | 104 kts | 181° |
| 2026-04-26 16:02 | -39.41451 | 176.91338 | 3249 ft | 104 kts | 202° |
| 2026-04-26 16:02 | -39.42125 | 176.90991 | 3436 ft | 104 kts | 200° |
| 2026-04-26 16:02 | -39.42809 | 176.90698 | 3604 ft | 103 kts | 188° |
| 2026-04-26 16:02 | -39.43282 | 176.90698 | 3721 ft | 103 kts | 169° |
| 2026-04-26 16:03 | -39.44089 | 176.91290 | 3957 ft | 101 kts | 130° |
| 2026-04-26 16:03 | -39.44446 | 176.92064 | 4123 ft | 101 kts | 130° |
| 2026-04-26 16:03 | -39.45084 | 176.92238 | 4290 ft | 100 kts | 196° |
| 2026-04-26 16:03 | -39.45741 | 176.91959 | 4478 ft | 99 kts | 193° |
| 2026-04-26 16:04 | -39.46390 | 176.91719 | 4659 ft | 98 kts | 191° |
| 2026-04-26 16:04 | -39.47001 | 176.91336 | 4831 ft | 99 kts | 209° |
| 2026-04-26 16:04 | -39.47612 | 176.90974 | 5012 ft | 95 kts | 186° |
| 2026-04-26 16:04 | -39.48242 | 176.91093 | 5172 ft | 91 kts | 167° |
| 2026-04-26 16:05 | -39.48859 | 176.91230 | 5346 ft | 90 kts | 165° |
| 2026-04-26 16:05 | -39.49468 | 176.91394 | 5516 ft | 89 kts | 165° |
| 2026-04-26 16:05 | -39.50066 | 176.91566 | 5685 ft | 87 kts | 164° |
| 2026-04-26 16:05 | -39.50642 | 176.91739 | 5851 ft | 85 kts | 164° |
| 2026-04-26 16:06 | -39.51208 | 176.91912 | 6015 ft | 82 kts | 163° |
| 2026-04-26 16:06 | -39.51752 | 176.92078 | 6176 ft | 79 kts | 162° |
| 2026-04-26 16:06 | -39.52267 | 176.92238 | 6323 ft | 73 kts | 162° |
| 2026-04-26 16:06 | -39.52745 | 176.92399 | 6425 ft | 71 kts | 162° |
| 2026-04-26 16:07 | -39.53240 | 176.92555 | 6533 ft | 75 kts | 162° |
| 2026-04-26 16:07 | -39.53766 | 176.92716 | 6657 ft | 80 kts | 162° |
| 2026-04-26 16:07 | -39.54325 | 176.92887 | 6779 ft | 85 kts | 164° |
| 2026-04-26 16:07 | -39.54918 | 176.93071 | 6907 ft | 91 kts | 165° |
| 2026-04-26 16:08 | -39.55544 | 176.93263 | 7039 ft | 97 kts | 165° |
| 2026-04-26 16:08 | -39.55997 | 176.93402 | 7127 ft | 101 kts | 166° |
| 2026-04-26 16:08 | -39.56941 | 176.93695 | 7294 ft | 109 kts | 166° |
| 2026-04-26 16:08 | -39.57697 | 176.93930 | 7415 ft | 114 kts | 166° |
| 2026-04-26 16:09 | -39.58486 | 176.94174 | 7534 ft | 118 kts | 167° |
| 2026-04-26 16:09 | -39.59298 | 176.94426 | 7645 ft | 122 kts | 167° |
| 2026-04-26 16:09 | -39.60130 | 176.94683 | 7755 ft | 124 kts | 167° |
| 2026-04-26 16:09 | -39.60974 | 176.94944 | 7855 ft | 125 kts | 167° |
| 2026-04-26 16:10 | -39.61828 | 176.95210 | 7935 ft | 129 kts | 168° |
| 2026-04-26 16:10 | -39.62713 | 176.95485 | 7944 ft | 135 kts | 168° |
| 2026-04-26 16:10 | -39.63631 | 176.95368 | 7932 ft | 139 kts | 210° |
| 2026-04-26 16:10 | -39.64248 | 176.94394 | 7945 ft | 143 kts | 236° |
| 2026-04-26 16:11 | -39.64810 | 176.93326 | 7948 ft | 144 kts | 232° |
| 2026-04-26 16:11 | -39.65415 | 176.92286 | 7947 ft | 145 kts | 231° |
| 2026-04-26 16:11 | -39.66033 | 176.91250 | 7947 ft | 145 kts | 230° |
| 2026-04-26 16:11 | -39.66655 | 176.90214 | 7949 ft | 146 kts | 230° |
| 2026-04-26 16:12 | -39.67278 | 176.89178 | 7950 ft | 146 kts | 230° |
| 2026-04-26 16:12 | -39.67902 | 176.88140 | 7950 ft | 146 kts | 230° |
| 2026-04-26 16:12 | -39.69144 | 176.86076 | 7949 ft | 146 kts | 230° |
| 2026-04-26 16:13 | -39.69768 | 176.85037 | 7948 ft | 146 kts | 230° |
| 2026-04-26 16:13 | -39.70392 | 176.83999 | 7948 ft | 146 kts | 230° |
| 2026-04-26 16:13 | -39.71015 | 176.82961 | 7949 ft | 146 kts | 230° |
| 2026-04-26 16:13 | -39.71639 | 176.81923 | 7948 ft | 146 kts | 230° |
| 2026-04-26 16:14 | -39.72264 | 176.80883 | 7946 ft | 146 kts | 230° |
| 2026-04-26 16:14 | -39.72888 | 176.79842 | 7946 ft | 146 kts | 230° |
| 2026-04-26 16:14 | -39.74129 | 176.77774 | 7957 ft | 146 kts | 230° |
| 2026-04-26 16:15 | -39.74753 | 176.76733 | 7955 ft | 146 kts | 230° |
| 2026-04-26 16:15 | -39.75377 | 176.75692 | 7956 ft | 146 kts | 230° |
| 2026-04-26 16:15 | -39.75999 | 176.74653 | 7955 ft | 146 kts | 230° |
| 2026-04-26 16:16 | -39.77249 | 176.72567 | 7957 ft | 147 kts | 231° |
| 2026-04-26 16:16 | -39.77875 | 176.71520 | 7958 ft | 147 kts | 231° |
| 2026-04-26 16:16 | -39.78502 | 176.70473 | 7958 ft | 147 kts | 231° |
| 2026-04-26 16:16 | -39.79121 | 176.69438 | 7958 ft | 147 kts | 231° |
| 2026-04-26 16:17 | -39.79796 | 176.68449 | 7958 ft | 146 kts | 223° |
| 2026-04-26 16:17 | -39.80517 | 176.67514 | 7955 ft | 146 kts | 224° |
| 2026-04-26 16:17 | -39.81230 | 176.66572 | 7955 ft | 146 kts | 224° |
| 2026-04-26 16:17 | -39.81944 | 176.65628 | 7955 ft | 146 kts | 224° |
| 2026-04-26 16:18 | -39.82659 | 176.64685 | 7957 ft | 147 kts | 224° |
| 2026-04-26 16:18 | -39.84090 | 176.62795 | 7960 ft | 146 kts | 224° |
| 2026-04-26 16:19 | -39.85511 | 176.60918 | 7958 ft | 147 kts | 224° |
| 2026-04-26 16:19 | -39.86228 | 176.59971 | 7959 ft | 147 kts | 224° |
| 2026-04-26 16:19 | -39.87419 | 176.58395 | 7958 ft | 147 kts | 224° |
| 2026-04-26 16:20 | -39.88378 | 176.57129 | 7958 ft | 147 kts | 224° |
| 2026-04-26 16:20 | -39.89808 | 176.55236 | 7956 ft | 147 kts | 224° |
| 2026-04-26 16:20 | -39.90524 | 176.54288 | 7956 ft | 147 kts | 224° |
| 2026-04-26 16:21 | -39.91238 | 176.53342 | 7959 ft | 147 kts | 224° |
| 2026-04-26 16:21 | -39.91943 | 176.52407 | 7959 ft | 147 kts | 224° |
| 2026-04-26 16:21 | -39.92657 | 176.51461 | 7959 ft | 147 kts | 224° |
| 2026-04-26 16:21 | -39.93373 | 176.50513 | 7958 ft | 147 kts | 224° |
| 2026-04-26 16:22 | -39.94087 | 176.49566 | 7958 ft | 147 kts | 224° |
| 2026-04-26 16:22 | -39.94802 | 176.48617 | 7964 ft | 147 kts | 224° |
| 2026-04-26 16:22 | -39.95517 | 176.47669 | 7964 ft | 146 kts | 224° |
| 2026-04-26 16:22 | -39.96221 | 176.46734 | 7964 ft | 146 kts | 224° |
| 2026-04-26 16:23 | -39.96942 | 176.45777 | 7964 ft | 146 kts | 224° |
| 2026-04-26 16:23 | -39.97647 | 176.44842 | 7964 ft | 146 kts | 224° |
| 2026-04-26 16:23 | -39.98358 | 176.43895 | 7964 ft | 146 kts | 224° |
| 2026-04-26 16:23 | -39.99072 | 176.42948 | 7964 ft | 146 kts | 224° |
| 2026-04-26 16:24 | -39.99782 | 176.42004 | 7964 ft | 146 kts | 224° |
| 2026-04-26 16:24 | -40.00493 | 176.41059 | 7964 ft | 146 kts | 224° |
| 2026-04-26 16:24 | -40.01202 | 176.40115 | 7964 ft | 146 kts | 224° |
| 2026-04-26 16:24 | -40.01914 | 176.39168 | 7964 ft | 146 kts | 224° |
| 2026-04-26 16:25 | -40.02625 | 176.38222 | 7964 ft | 146 kts | 224° |
| 2026-04-26 16:25 | -40.03333 | 176.37278 | 7964 ft | 146 kts | 224° |
| 2026-04-26 16:25 | -40.04036 | 176.36342 | 7964 ft | 146 kts | 224° |
| 2026-04-26 16:25 | -40.04747 | 176.35395 | 7962 ft | 146 kts | 224° |
| 2026-04-26 16:26 | -40.05458 | 176.34447 | 7962 ft | 146 kts | 224° |
| 2026-04-26 16:26 | -40.05929 | 176.33819 | 7963 ft | 146 kts | 224° |
| 2026-04-26 16:26 | -40.06879 | 176.32553 | 7962 ft | 146 kts | 224° |
| 2026-04-26 16:26 | -40.07588 | 176.31608 | 7961 ft | 146 kts | 224° |
| 2026-04-26 16:27 | -40.08296 | 176.30661 | 7959 ft | 146 kts | 224° |
| 2026-04-26 16:27 | -40.09007 | 176.29713 | 7959 ft | 146 kts | 224° |
| 2026-04-26 16:27 | -40.09707 | 176.28778 | 7960 ft | 146 kts | 224° |
| 2026-04-26 16:27 | -40.10419 | 176.27828 | 7959 ft | 146 kts | 224° |
| 2026-04-26 16:28 | -40.11129 | 176.26879 | 7961 ft | 146 kts | 224° |
| 2026-04-26 16:28 | -40.11839 | 176.25930 | 7962 ft | 146 kts | 224° |
| 2026-04-26 16:28 | -40.12549 | 176.24980 | 7963 ft | 146 kts | 224° |
| 2026-04-26 16:28 | -40.13260 | 176.24029 | 7962 ft | 146 kts | 224° |
| 2026-04-26 16:29 | -40.13970 | 176.23080 | 7962 ft | 146 kts | 224° |
| 2026-04-26 16:29 | -40.14680 | 176.22129 | 7963 ft | 146 kts | 224° |
| 2026-04-26 16:29 | -40.15382 | 176.21191 | 7960 ft | 146 kts | 225° |
| 2026-04-26 16:29 | -40.16091 | 176.20240 | 7961 ft | 146 kts | 224° |
| 2026-04-26 16:30 | -40.16803 | 176.19287 | 7960 ft | 147 kts | 225° |
| 2026-04-26 16:30 | -40.17516 | 176.18333 | 7954 ft | 147 kts | 225° |
| 2026-04-26 16:30 | -40.18231 | 176.17376 | 7955 ft | 147 kts | 225° |
| 2026-04-26 16:30 | -40.18946 | 176.16413 | 7955 ft | 148 kts | 225° |
| 2026-04-26 16:31 | -40.19662 | 176.15453 | 7956 ft | 148 kts | 225° |
| 2026-04-26 16:31 | -40.20379 | 176.14492 | 7956 ft | 148 kts | 225° |
| 2026-04-26 16:31 | -40.21097 | 176.13528 | 7956 ft | 148 kts | 225° |
| 2026-04-26 16:31 | -40.21804 | 176.12579 | 7956 ft | 148 kts | 225° |
| 2026-04-26 16:32 | -40.22520 | 176.11617 | 7956 ft | 148 kts | 225° |
| 2026-04-26 16:32 | -40.23003 | 176.10968 | 7956 ft | 148 kts | 225° |
| 2026-04-26 16:32 | -40.23953 | 176.09693 | 7956 ft | 148 kts | 225° |
| 2026-04-26 16:32 | -40.24668 | 176.08731 | 7956 ft | 148 kts | 225° |
| 2026-04-26 16:33 | -40.25385 | 176.07767 | 7956 ft | 148 kts | 225° |
| 2026-04-26 16:33 | -40.26101 | 176.06803 | 7956 ft | 148 kts | 225° |
| 2026-04-26 16:33 | -40.26818 | 176.05839 | 7956 ft | 148 kts | 225° |
| 2026-04-26 16:33 | -40.27524 | 176.04865 | 7954 ft | 148 kts | 229° |
| 2026-04-26 16:34 | -40.28184 | 176.03857 | 7952 ft | 148 kts | 228° |
| 2026-04-26 16:34 | -40.28866 | 176.02852 | 7957 ft | 148 kts | 228° |
| 2026-04-26 16:34 | -40.29543 | 176.01845 | 7958 ft | 147 kts | 228° |
| 2026-04-26 16:34 | -40.30219 | 176.00836 | 7957 ft | 147 kts | 228° |
| 2026-04-26 16:35 | -40.30895 | 175.99826 | 7957 ft | 147 kts | 228° |
| 2026-04-26 16:35 | -40.31572 | 175.98815 | 7957 ft | 148 kts | 228° |
| 2026-04-26 16:35 | -40.32247 | 175.97803 | 7953 ft | 148 kts | 228° |
| 2026-04-26 16:35 | -40.32924 | 175.96790 | 7952 ft | 148 kts | 228° |
| 2026-04-26 16:36 | -40.33592 | 175.95790 | 7952 ft | 148 kts | 228° |
| 2026-04-26 16:36 | -40.34269 | 175.94775 | 7953 ft | 148 kts | 228° |
| 2026-04-26 16:36 | -40.34946 | 175.93762 | 7953 ft | 148 kts | 228° |
| 2026-04-26 16:36 | -40.35623 | 175.92747 | 7953 ft | 148 kts | 228° |
| 2026-04-26 16:37 | -40.36299 | 175.91732 | 7955 ft | 148 kts | 228° |
| 2026-04-26 16:37 | -40.36976 | 175.90718 | 7955 ft | 148 kts | 228° |
| 2026-04-26 16:37 | -40.37653 | 175.89704 | 7955 ft | 148 kts | 228° |
| 2026-04-26 16:37 | -40.38329 | 175.88687 | 7955 ft | 148 kts | 228° |
| 2026-04-26 16:38 | -40.39004 | 175.87675 | 7955 ft | 148 kts | 228° |
| 2026-04-26 16:38 | -40.39670 | 175.86673 | 7955 ft | 148 kts | 228° |
| 2026-04-26 16:38 | -40.40345 | 175.85660 | 7956 ft | 147 kts | 229° |
| 2026-04-26 16:38 | -40.40984 | 175.84620 | 7951 ft | 146 kts | 240° |
| 2026-04-26 16:39 | -40.41205 | 175.83330 | 7946 ft | 148 kts | 270° |
| 2026-04-26 16:39 | -40.41122 | 175.81989 | 7949 ft | 147 kts | 272° |
| 2026-04-26 16:39 | -40.41051 | 175.80650 | 7950 ft | 147 kts | 272° |
| 2026-04-26 16:39 | -40.40975 | 175.79312 | 7950 ft | 147 kts | 273° |
| 2026-04-26 16:40 | -40.40909 | 175.77995 | 7951 ft | 147 kts | 273° |
| 2026-04-26 16:40 | -40.40839 | 175.76656 | 7937 ft | 148 kts | 273° |
| 2026-04-26 16:40 | -40.40769 | 175.75360 | 7795 ft | 134 kts | 273° |
| 2026-04-26 16:40 | -40.40708 | 175.74155 | 7658 ft | 135 kts | 273° |
| 2026-04-26 16:41 | -40.40642 | 175.72901 | 7532 ft | 140 kts | 273° |
| 2026-04-26 16:41 | -40.40572 | 175.71615 | 7413 ft | 143 kts | 273° |
| 2026-04-26 16:41 | -40.40501 | 175.70299 | 7244 ft | 147 kts | 273° |
| 2026-04-26 16:41 | -40.40428 | 175.68951 | 7082 ft | 149 kts | 273° |
| 2026-04-26 16:42 | -40.40351 | 175.67560 | 6924 ft | 157 kts | 274° |
| 2026-04-26 16:42 | -40.40269 | 175.66109 | 6765 ft | 162 kts | 274° |
| 2026-04-26 16:42 | -40.40192 | 175.64643 | 6605 ft | 164 kts | 274° |
| 2026-04-26 16:42 | -40.40110 | 175.63139 | 6434 ft | 166 kts | 274° |
| 2026-04-26 16:43 | -40.40027 | 175.61624 | 6257 ft | 167 kts | 274° |
| 2026-04-26 16:43 | -40.39943 | 175.60104 | 6079 ft | 167 kts | 274° |
| 2026-04-26 16:43 | -40.39862 | 175.58585 | 5901 ft | 167 kts | 275° |
| 2026-04-26 16:43 | -40.39776 | 175.57067 | 5721 ft | 167 kts | 275° |
| 2026-04-26 16:44 | -40.39692 | 175.55550 | 5545 ft | 167 kts | 275° |
| 2026-04-26 16:44 | -40.39609 | 175.54035 | 5369 ft | 166 kts | 275° |
| 2026-04-26 16:44 | -40.39527 | 175.52544 | 5196 ft | 166 kts | 275° |
| 2026-04-26 16:44 | -40.39443 | 175.51035 | 5021 ft | 166 kts | 276° |
| 2026-04-26 16:45 | -40.39361 | 175.49540 | 4778 ft | 162 kts | 276° |
| 2026-04-26 16:45 | -40.39281 | 175.48089 | 4518 ft | 158 kts | 276° |
| 2026-04-26 16:45 | -40.39200 | 175.46662 | 4257 ft | 156 kts | 275° |
| 2026-04-26 16:45 | -40.39100 | 175.45249 | 3998 ft | 155 kts | 282° |
| 2026-04-26 16:46 | -40.38613 | 175.44013 | 3735 ft | 153 kts | 312° |
| 2026-04-26 16:46 | -40.37752 | 175.43221 | 3477 ft | 152 kts | 339° |
| 2026-04-26 16:46 | -40.36717 | 175.43026 | 3238 ft | 151 kts | 1° |
| 2026-04-26 16:46 | -40.35680 | 175.43051 | 2990 ft | 151 kts | 359° |
| 2026-04-26 16:47 | -40.34630 | 175.43051 | 2738 ft | 151 kts | 359° |
| 2026-04-26 16:47 | -40.33580 | 175.43103 | 2477 ft | 152 kts | 10° |
| 2026-04-26 16:47 | -40.32683 | 175.43725 | 2426 ft | 143 kts | 40° |
| 2026-04-26 16:47 | -40.32128 | 175.44750 | 2423 ft | 137 kts | 67° |
| 2026-04-26 16:48 | -40.31970 | 175.45984 | 2309 ft | 140 kts | 90° |
| 2026-04-26 16:48 | -40.31989 | 175.47184 | 2134 ft | 125 kts | 89° |
| 2026-04-26 16:48 | -40.31987 | 175.48267 | 1974 ft | 117 kts | 89° |
| 2026-04-26 16:48 | -40.31986 | 175.49307 | 1821 ft | 112 kts | 89° |
| 2026-04-26 16:49 | -40.31986 | 175.50311 | 1669 ft | 107 kts | 89° |
| 2026-04-26 16:49 | -40.31987 | 175.51258 | 1519 ft | 100 kts | 89° |
| 2026-04-26 16:49 | -40.31987 | 175.52133 | 1387 ft | 93 kts | 89° |
| 2026-04-26 16:49 | -40.31986 | 175.52950 | 1269 ft | 84 kts | 89° |
| 2026-04-26 16:50 | -40.31986 | 175.53624 | 1156 ft | 67 kts | 87° |
| 2026-04-26 16:50 | -40.31984 | 175.54193 | 1010 ft | 61 kts | 86° |
| 2026-04-26 16:50 | -40.31985 | 175.54738 | 840 ft | 58 kts | 86° |
| 2026-04-26 16:50 | -40.31974 | 175.55296 | 774 ft | 70 kts | 83° |
| 2026-04-26 16:51 | -40.31981 | 175.55986 | 804 ft | 79 kts | 89° |
| 2026-04-26 16:51 | -40.31971 | 175.56742 | 776 ft | 88 kts | 86° |
| 2026-04-26 16:51 | -40.31973 | 175.57528 | 628 ft | 83 kts | 89° |
| 2026-04-26 16:51 | -40.31989 | 175.58247 | 481 ft | 77 kts | 87° |
| 2026-04-26 16:52 | -40.31992 | 175.58939 | 384 ft | 74 kts | 88° |
| 2026-04-26 16:52 | -40.31984 | 175.59385 | 307 ft | 74 kts | 88° |
| 2026-04-26 16:52 | -40.31984 | 175.60250 | 195 ft | 71 kts | 88° |
| 2026-04-26 16:52 | -40.31985 | 175.60875 | 150 ft | 64 kts | 89° |
| 2026-04-26 16:53 | -40.31988 | 175.61384 | 146 ft | 44 kts | 90° |
| 2026-04-26 16:53 | -40.31987 | 175.61695 | 146 ft | 28 kts | 90° |
| 2026-04-26 16:53 | -40.31988 | 175.61905 | 147 ft | 10 kts | 93° |
| 2026-04-26 16:53 | -40.32052 | 175.61953 | 148 ft | 16 kts | 179° |
| 2026-04-26 16:54 | -40.32196 | 175.61953 | 149 ft | 23 kts | 182° |
| 2026-04-26 16:54 | -40.32251 | 175.62035 | 149 ft | 8 kts | 133° |
| 2026-04-26 16:54 | -40.32294 | 175.62049 | 149 ft | 6 kts | 67° |
| 2026-04-26 16:54 | -40.32292 | 175.62054 | 149 ft | 0 kts | 69° |